Abbottabad Weather



Abbottabad's Current Weather

Temprature 31.99o clear sky

clear sky

Rain: 0 %

Min Temprature31.99o
Max Temprature31.99o
Humidity34
Wind Speed2.34 m/h
Sun Rise05:12:20
Sun Set19:14:38
Current Time: 24-Jul-2021 14:53:38
Lat/Lon: 34.1469, 73.2145




Abbottabad's Geo Location



Abbottabad's Weather Forecast

Time Overall Temp Min Temp Max Temp Humidity Wind Speed Rain
24-Jul-2021 (Sat)
17:00:00 clear sky 32.060 32.060 32.190 35 1.37 m/h 0 %
20:00:00 clear sky 28.700 27.050 28.700 43 1.17 m/h 0 %
23:00:00 clear sky 25.740 25.740 25.740 50 2.27 m/h 0 %
25-Jul-2021 (Sun)
02:00:00 clear sky 24.740 24.740 24.740 54 2.32 m/h 0 %
05:00:00 scattered clouds 24.300 24.300 24.300 55 2.35 m/h 0 %
08:00:00 broken clouds 29.420 29.420 29.420 45 0.83 m/h 0 %
11:00:00 scattered clouds 32.710 32.710 32.710 37 2.9 m/h 0 %
14:00:00 scattered clouds 33.720 33.720 33.720 35 2.78 m/h 0 %
17:00:00 scattered clouds 33.320 33.320 33.320 37 1.77 m/h 0 %
20:00:00 scattered clouds 28.570 28.570 28.570 48 1.17 m/h 0 %
23:00:00 scattered clouds 27.220 27.220 27.220 51 1.97 m/h 0 %
26-Jul-2021 (Mon)
02:00:00 clear sky 25.830 25.830 25.830 57 1.9 m/h 0 %
05:00:00 broken clouds 24.880 24.880 24.880 63 1.97 m/h 0 %
08:00:00 broken clouds 29.240 29.240 29.240 55 0.9 m/h 0 %
11:00:00 light rain 32.140 32.140 32.140 47 2.8 m/h 16 %
14:00:00 light rain 31.930 31.930 31.930 49 1.75 m/h 15 %
17:00:00 broken clouds 29.870 29.870 29.870 59 1.03 m/h 0 %
20:00:00 broken clouds 28.240 28.240 28.240 60 1.91 m/h 0 %
23:00:00 broken clouds 27.660 27.660 27.660 61 1.45 m/h 0 %
27-Jul-2021 (Tue)
02:00:00 light rain 26.760 26.760 26.760 68 1.01 m/h 24 %
05:00:00 light rain 25.410 25.410 25.410 76 0.7 m/h 145 %
08:00:00 light rain 26.260 26.260 26.260 76 1.38 m/h 78 %
11:00:00 light rain 29.700 29.700 29.700 64 3.49 m/h 63 %
14:00:00 moderate rain 28.870 28.870 28.870 68 3.24 m/h 371 %
17:00:00 moderate rain 27.580 27.580 27.580 75 1.42 m/h 447 %
20:00:00 moderate rain 24.390 24.390 24.390 84 2.19 m/h 766 %
23:00:00 heavy intensity rain 23.630 23.630 23.630 89 1.76 m/h 1,293 %
28-Jul-2021 (Wed)
02:00:00 heavy intensity rain 21.810 21.810 21.810 98 2.67 m/h 3,843 %
05:00:00 heavy intensity rain 20.990 20.990 20.990 95 2.45 m/h 4,436 %
08:00:00 moderate rain 21.190 21.190 21.190 91 1.43 m/h 578 %
11:00:00 moderate rain 21.730 21.730 21.730 91 1.15 m/h 535 %
14:00:00 light rain 21.950 21.950 21.950 92 0.88 m/h 239 %
17:00:00 moderate rain 21.600 21.600 21.600 96 0.96 m/h 330 %
20:00:00 moderate rain 21.300 21.300 21.300 95 1.62 m/h 311 %
23:00:00 broken clouds 20.840 20.840 20.840 92 1.35 m/h 0 %
29-Jul-2021 (Thu)
02:00:00 light rain 21.050 21.050 21.050 91 0.71 m/h 77 %
05:00:00 light rain 20.220 20.220 20.220 93 0.74 m/h 121 %
08:00:00 light rain 22.300 22.300 22.300 86 0.19 m/h 60 %
11:00:00 light rain 25.690 25.690 25.690 75 2.22 m/h 76 %
14:00:00 light rain 25.450 25.450 25.450 78 2.32 m/h 220 %


Abbottabad's Tourist Spots

Historical Places in Abbottabad

Famous Cities (60)